createdAt,value
2019-04-30T00:00:21.174Z,0.00
2019-04-30T00:01:21.207Z,0.00
2019-04-30T00:02:21.236Z,0.00
2019-04-30T00:03:21.272Z,0.00
2019-04-30T00:04:21.295Z,0.00
2019-04-30T00:05:21.324Z,0.00
2019-04-30T00:06:21.351Z,0.00
2019-04-30T00:07:21.382Z,0.00
2019-04-30T00:08:21.425Z,0.00
2019-04-30T00:09:21.443Z,0.00
2019-04-30T00:10:21.471Z,0.00
2019-04-30T00:11:21.502Z,0.00
2019-04-30T00:12:21.528Z,0.00
2019-04-30T00:13:21.556Z,0.00
2019-04-30T00:14:21.588Z,0.00
2019-04-30T00:15:21.615Z,0.00
2019-04-30T00:16:21.643Z,0.00
2019-04-30T00:17:21.673Z,0.00
2019-04-30T00:18:21.704Z,0.00
2019-04-30T00:19:21.731Z,0.00
2019-04-30T00:20:21.763Z,0.00
2019-04-30T00:21:21.787Z,0.00
2019-04-30T00:22:33.068Z,0.00
2019-04-30T00:23:22.715Z,0.00
2019-04-30T00:24:21.876Z,0.00
2019-04-30T00:25:26.909Z,0.00
2019-04-30T00:26:21.935Z,0.00
2019-04-30T00:27:26.370Z,0.00
2019-04-30T00:28:21.990Z,0.00
2019-04-30T00:29:26.963Z,0.00
2019-04-30T00:30:22.049Z,0.00
2019-04-30T00:31:23.852Z,0.00
2019-04-30T00:32:22.109Z,0.00
2019-04-30T00:33:25.076Z,0.00
2019-04-30T00:34:22.169Z,0.00
2019-04-30T00:35:22.193Z,0.00
2019-04-30T00:36:22.224Z,0.00
2019-04-30T00:37:22.248Z,0.00
2019-04-30T00:38:22.280Z,0.00
2019-04-30T00:39:22.312Z,0.00
2019-04-30T00:40:26.761Z,0.00
2019-04-30T00:41:22.363Z,0.00
2019-04-30T00:42:24.470Z,0.00
2019-04-30T00:43:22.420Z,0.00
2019-04-30T00:44:24.786Z,0.00
2019-04-30T00:45:22.479Z,0.00
2019-04-30T00:46:25.493Z,0.00
2019-04-30T00:47:22.536Z,0.00
2019-04-30T00:48:27.860Z,0.00
2019-04-30T00:49:24.171Z,0.00
2019-04-30T00:50:22.623Z,0.00
2019-04-30T00:51:22.650Z,0.00
2019-04-30T00:52:22.679Z,0.00
2019-04-30T00:53:22.713Z,0.00
2019-04-30T00:54:27.996Z,0.00
2019-04-30T00:55:22.768Z,0.00
2019-04-30T00:56:24.676Z,0.00
2019-04-30T00:57:22.819Z,0.00
2019-04-30T00:58:28.992Z,0.00
2019-04-30T00:59:22.877Z,0.00
2019-04-30T01:00:28.088Z,0.00
2019-04-30T01:01:22.935Z,0.00
2019-04-30T01:02:30.445Z,0.00
2019-04-30T01:03:22.990Z,0.00
2019-04-30T01:04:24.480Z,0.00
2019-04-30T01:05:23.050Z,0.00
2019-04-30T01:06:24.665Z,0.00
2019-04-30T01:07:23.107Z,0.00
2019-04-30T01:08:27.229Z,0.00
2019-04-30T01:09:23.161Z,0.00
2019-04-30T01:10:26.786Z,0.00
2019-04-30T01:11:23.219Z,0.00
2019-04-30T01:12:27.728Z,0.00
2019-04-30T01:13:23.276Z,0.00
2019-04-30T01:14:28.203Z,0.00
2019-04-30T01:15:23.334Z,0.00
2019-04-30T01:16:23.597Z,0.00
2019-04-30T01:17:23.389Z,0.00
2019-04-30T01:18:27.628Z,0.00
2019-04-30T01:19:29.982Z,0.00
2019-04-30T01:20:24.041Z,0.00
2019-04-30T01:21:23.504Z,0.00
2019-04-30T01:22:28.148Z,0.00
2019-04-30T01:23:23.564Z,0.00
2019-04-30T01:24:27.793Z,0.00
2019-04-30T01:25:23.622Z,0.00
2019-04-30T01:26:27.739Z,0.00
2019-04-30T01:27:23.677Z,0.00
2019-04-30T01:28:24.409Z,0.00
2019-04-30T01:29:23.737Z,0.00
2019-04-30T01:30:23.766Z,0.00
2019-04-30T01:31:23.794Z,0.00
2019-04-30T01:32:23.825Z,0.00
2019-04-30T01:33:28.421Z,0.00
2019-04-30T01:34:23.883Z,0.00
2019-04-30T01:35:28.280Z,0.00
2019-04-30T01:36:23.937Z,0.00
2019-04-30T01:37:28.330Z,0.00
2019-04-30T01:38:23.995Z,0.00
2019-04-30T01:39:28.434Z,0.00
2019-04-30T01:40:24.052Z,0.00
2019-04-30T01:41:27.350Z,0.00
2019-04-30T01:42:24.111Z,0.00
2019-04-30T01:43:31.591Z,0.00
2019-04-30T01:44:24.167Z,0.00
2019-04-30T01:45:28.182Z,0.00
2019-04-30T01:46:24.226Z,0.00
2019-04-30T01:47:27.690Z,0.00
2019-04-30T01:48:24.287Z,0.00
2019-04-30T01:49:26.656Z,0.00
2019-04-30T01:50:24.342Z,0.00
2019-04-30T01:51:24.370Z,0.00
2019-04-30T01:52:24.397Z,0.00
2019-04-30T01:53:24.426Z,0.00
2019-04-30T01:54:24.524Z,0.00
2019-04-30T01:55:24.486Z,0.00
2019-04-30T01:56:24.514Z,4.00
2019-04-30T01:57:24.547Z,4.00
2019-04-30T01:58:24.571Z,4.00
2019-04-30T01:59:24.600Z,4.00
2019-04-30T02:00:24.629Z,0.00
2019-04-30T02:01:24.662Z,4.00
2019-04-30T02:02:24.687Z,4.00
2019-04-30T02:03:24.716Z,4.00
2019-04-30T02:04:24.745Z,4.00
2019-04-30T02:05:24.776Z,4.00
2019-04-30T02:06:24.809Z,8.00
2019-04-30T02:07:24.831Z,4.00
2019-04-30T02:08:24.861Z,8.00
2019-04-30T02:09:24.895Z,8.00
2019-04-30T02:10:24.918Z,12.00
2019-04-30T02:11:24.948Z,12.00
2019-04-30T02:12:24.979Z,12.00
2019-04-30T02:13:25.004Z,12.00
2019-04-30T02:14:25.034Z,16.00
2019-04-30T02:15:25.062Z,20.00
2019-04-30T02:16:25.093Z,24.00
2019-04-30T02:17:25.120Z,24.00
2019-04-30T02:18:25.148Z,24.00
2019-04-30T02:19:25.180Z,28.00
2019-04-30T02:20:25.205Z,32.00
2019-04-30T02:21:25.234Z,36.00
2019-04-30T02:22:25.265Z,40.00
2019-04-30T02:23:25.291Z,48.00
2019-04-30T02:24:25.317Z,52.00
2019-04-30T02:25:25.348Z,60.00
2019-04-30T02:26:25.379Z,64.00
2019-04-30T02:27:25.403Z,76.00
2019-04-30T02:28:25.430Z,80.00
2019-04-30T02:29:25.460Z,92.00
2019-04-30T02:30:25.495Z,104.00
2019-04-30T02:31:25.517Z,112.00
2019-04-30T02:32:25.544Z,124.00
2019-04-30T02:33:25.573Z,136.00
2019-04-30T02:34:25.601Z,148.00
2019-04-30T02:35:25.631Z,160.00
2019-04-30T02:36:25.660Z,172.00
2019-04-30T02:37:25.683Z,188.00
2019-04-30T02:38:25.717Z,204.00
2019-04-30T02:39:25.740Z,220.00
2019-04-30T02:40:25.768Z,240.00
2019-04-30T02:41:25.801Z,260.00
2019-04-30T02:42:25.822Z,276.00
2019-04-30T02:43:25.851Z,300.00
2019-04-30T02:44:25.879Z,320.00
2019-04-30T02:45:25.907Z,344.00
2019-04-30T02:46:25.933Z,372.00
2019-04-30T02:47:25.962Z,400.00
2019-04-30T02:48:25.991Z,432.00
2019-04-30T02:49:26.018Z,464.00
2019-04-30T02:50:26.045Z,496.00
2019-04-30T02:51:26.070Z,536.00
2019-04-30T02:52:26.098Z,572.00
2019-04-30T02:53:26.127Z,608.00
2019-04-30T02:54:26.156Z,652.00
2019-04-30T02:55:26.181Z,696.00
2019-04-30T02:56:27.107Z,736.00
2019-04-30T02:57:26.235Z,780.00
2019-04-30T02:58:26.263Z,820.00
2019-04-30T02:59:26.292Z,864.00
2019-04-30T03:00:26.320Z,904.00
2019-04-30T03:01:26.348Z,948.00
2019-04-30T03:02:28.559Z,988.00
2019-04-30T03:03:26.398Z,1032.00
2019-04-30T03:04:26.430Z,1076.00
2019-04-30T03:05:26.456Z,1120.00
2019-04-30T03:06:26.481Z,1172.00
2019-04-30T03:07:26.507Z,1212.00
2019-04-30T03:08:29.554Z,1260.00
2019-04-30T03:09:26.560Z,1308.00
2019-04-30T03:10:26.588Z,1360.00
2019-04-30T03:11:26.614Z,1416.00
2019-04-30T03:12:26.643Z,1468.00
2019-04-30T03:13:29.708Z,1524.00
2019-04-30T03:14:26.695Z,1576.00
2019-04-30T03:15:29.602Z,1628.00
2019-04-30T03:16:26.752Z,1684.00
2019-04-30T03:17:29.282Z,1732.00
2019-04-30T03:18:26.804Z,1780.00
2019-04-30T03:19:29.327Z,1828.00
2019-04-30T03:20:32.668Z,1868.00
2019-04-30T03:21:29.038Z,1904.00
2019-04-30T03:22:26.914Z,1940.00
2019-04-30T03:23:29.305Z,1980.00
2019-04-30T03:24:29.417Z,2020.00
2019-04-30T03:25:29.807Z,2052.00
2019-04-30T03:26:29.617Z,2104.00
2019-04-30T03:27:27.053Z,2168.00
2019-04-30T03:28:29.896Z,2236.00
2019-04-30T03:29:27.101Z,2308.00
2019-04-30T03:30:31.539Z,2388.00
2019-04-30T03:31:27.156Z,2468.00
2019-04-30T03:32:35.856Z,2544.00
2019-04-30T03:33:32.181Z,2604.00
2019-04-30T03:34:31.826Z,2668.00
2019-04-30T03:35:31.753Z,2756.00
2019-04-30T03:36:27.291Z,2860.00
2019-04-30T03:37:29.406Z,2948.00
2019-04-30T03:38:30.036Z,3040.00
2019-04-30T03:39:29.726Z,3216.00
2019-04-30T03:40:30.053Z,3380.00
2019-04-30T03:41:33.096Z,3528.00
2019-04-30T03:42:29.428Z,3660.00
2019-04-30T03:43:30.003Z,3668.00
2019-04-30T03:44:31.596Z,3556.00
2019-04-30T03:45:30.020Z,3500.00
2019-04-30T03:46:29.817Z,3552.00
2019-04-30T03:47:29.932Z,3648.00
2019-04-30T03:48:29.348Z,3812.00
2019-04-30T03:49:29.784Z,3880.00
2019-04-30T03:50:32.841Z,3864.00
2019-04-30T03:51:29.867Z,3964.00
2019-04-30T03:52:29.155Z,4140.00
2019-04-30T03:53:29.759Z,4256.00
2019-04-30T03:54:29.245Z,4268.00
2019-04-30T03:55:29.434Z,4376.00
2019-04-30T03:56:29.898Z,4552.00
2019-04-30T03:57:30.186Z,4644.00
2019-04-30T03:58:29.266Z,4676.00
2019-04-30T03:59:30.077Z,4868.00
2019-04-30T04:00:29.991Z,5072.00
2019-04-30T04:01:29.487Z,5268.00
2019-04-30T04:02:30.059Z,5260.00
2019-04-30T04:03:29.712Z,5376.00
2019-04-30T04:04:30.775Z,5556.00
2019-04-30T04:05:29.862Z,5676.00
2019-04-30T04:06:29.273Z,5720.00
2019-04-30T04:07:29.944Z,5900.00
2019-04-30T04:08:29.328Z,5916.00
2019-04-30T04:09:29.991Z,5684.00
2019-04-30T04:10:29.778Z,5656.00
2019-04-30T04:11:29.733Z,5916.00
2019-04-30T04:12:30.460Z,6024.00
2019-04-30T04:13:30.065Z,5864.00
2019-04-30T04:14:29.619Z,5804.00
2019-04-30T04:15:29.921Z,5800.00
2019-04-30T04:16:31.783Z,6112.00
2019-04-30T04:17:31.072Z,6452.00
2019-04-30T04:18:30.210Z,6556.00
2019-04-30T04:19:29.264Z,6836.00
2019-04-30T04:20:29.843Z,6836.00
2019-04-30T04:21:29.970Z,6652.00
2019-04-30T04:22:30.706Z,6464.00
2019-04-30T04:23:32.319Z,6120.00
2019-04-30T04:24:30.237Z,6404.00
2019-04-30T04:25:29.924Z,6936.00
2019-04-30T04:26:29.886Z,6996.00
2019-04-30T04:27:30.297Z,6396.00
2019-04-30T04:28:29.978Z,6248.00
2019-04-30T04:29:29.848Z,6376.00
2019-04-30T04:30:29.816Z,6508.00
2019-04-30T04:31:29.883Z,6592.00
2019-04-30T04:32:30.839Z,7376.00
2019-04-30T04:33:29.617Z,7404.00
2019-04-30T04:34:30.238Z,7636.00
2019-04-30T04:35:29.971Z,8628.00
2019-04-30T04:36:30.247Z,9276.00
2019-04-30T04:37:30.194Z,9808.00
2019-04-30T04:38:30.400Z,10944.00
2019-04-30T04:39:29.766Z,11484.00
2019-04-30T04:40:30.275Z,11276.00
2019-04-30T04:41:29.631Z,10892.00
2019-04-30T04:42:32.711Z,10512.00
2019-04-30T04:43:30.044Z,11212.00
2019-04-30T04:44:29.527Z,11564.00
2019-04-30T04:45:30.555Z,12624.00
2019-04-30T04:46:30.810Z,13276.00
2019-04-30T04:47:30.946Z,13216.00
2019-04-30T04:48:29.922Z,13496.00
2019-04-30T04:49:30.528Z,14320.00
2019-04-30T04:50:30.363Z,15200.00
2019-04-30T04:51:38.074Z,16224.00
2019-04-30T04:52:31.547Z,16064.00
2019-04-30T04:53:30.360Z,14912.00
2019-04-30T04:54:30.093Z,15552.00
2019-04-30T04:55:30.119Z,16896.00
2019-04-30T04:56:30.485Z,18464.00
2019-04-30T04:57:30.360Z,18464.00
2019-04-30T04:58:30.437Z,18912.00
2019-04-30T04:59:29.843Z,18880.00
2019-04-30T05:00:29.836Z,18112.00
2019-04-30T05:01:29.867Z,17984.00
2019-04-30T05:02:32.763Z,17152.00
2019-04-30T05:03:30.001Z,16224.00
2019-04-30T05:04:29.986Z,15840.00
2019-04-30T05:05:30.067Z,17344.00
2019-04-30T05:06:30.051Z,17696.00
2019-04-30T05:07:30.080Z,18336.00
2019-04-30T05:08:30.115Z,18432.00
2019-04-30T05:09:30.147Z,18272.00
2019-04-30T05:10:30.185Z,19904.00
2019-04-30T05:11:31.675Z,20480.00
2019-04-30T05:12:30.261Z,19232.00
2019-04-30T05:13:30.294Z,17536.00
2019-04-30T05:14:30.329Z,18112.00
2019-04-30T05:15:30.366Z,18752.00
2019-04-30T05:16:30.405Z,18528.00
2019-04-30T05:17:32.105Z,19392.00
2019-04-30T05:18:30.477Z,19200.00
2019-04-30T05:19:30.512Z,18496.00
2019-04-30T05:20:30.550Z,17856.00
2019-04-30T05:21:41.741Z,19744.00
2019-04-30T05:22:30.628Z,16928.00
2019-04-30T05:23:30.665Z,16160.00
2019-04-30T05:24:30.697Z,17952.00
2019-04-30T05:25:30.738Z,18304.00
2019-04-30T05:26:30.777Z,18176.00
2019-04-30T05:27:30.814Z,18752.00
2019-04-30T05:28:30.848Z,19744.00
2019-04-30T05:29:30.887Z,20000.00
2019-04-30T05:30:30.930Z,20032.00
2019-04-30T05:31:30.963Z,20896.00
2019-04-30T05:32:31.002Z,21440.00
2019-04-30T05:33:31.042Z,21056.00
2019-04-30T05:34:31.078Z,20864.00
2019-04-30T05:35:31.287Z,19968.00
2019-04-30T05:36:31.157Z,20032.00
2019-04-30T05:37:31.194Z,20064.00
2019-04-30T05:38:31.455Z,21152.00
2019-04-30T05:39:31.272Z,23936.00
2019-04-30T05:40:31.310Z,22944.00
2019-04-30T05:41:31.350Z,21760.00
2019-04-30T05:42:31.392Z,23200.00
2019-04-30T05:43:31.431Z,26016.00
2019-04-30T05:44:31.468Z,28896.00
2019-04-30T05:45:33.636Z,29760.00
2019-04-30T05:46:31.552Z,28096.00
2019-04-30T05:47:31.588Z,28384.00
2019-04-30T05:48:31.631Z,29408.00
2019-04-30T05:49:31.669Z,29280.00
2019-04-30T05:50:31.711Z,29120.00
2019-04-30T05:51:31.749Z,27552.00
2019-04-30T05:52:31.788Z,25152.00
2019-04-30T05:53:31.829Z,24384.00
2019-04-30T05:54:31.870Z,24992.00
2019-04-30T05:55:31.912Z,26048.00
2019-04-30T05:56:31.955Z,27008.00
2019-04-30T05:57:31.995Z,25984.00
2019-04-30T05:58:32.037Z,25312.00
2019-04-30T05:59:32.079Z,24704.00
2019-04-30T06:00:32.120Z,24928.00
2019-04-30T06:01:32.158Z,25760.00
2019-04-30T06:02:34.041Z,25888.00
2019-04-30T06:03:33.287Z,26272.00
2019-04-30T06:04:32.280Z,26976.00
2019-04-30T06:05:32.323Z,27168.00
2019-04-30T06:06:33.681Z,26592.00
2019-04-30T06:07:32.407Z,25984.00
2019-04-30T06:08:32.449Z,27008.00
2019-04-30T06:09:34.008Z,26432.00
2019-04-30T06:10:32.531Z,27776.00
2019-04-30T06:11:32.574Z,31328.00
2019-04-30T06:12:32.615Z,27296.00
2019-04-30T06:13:32.657Z,28608.00
2019-04-30T06:14:32.700Z,30368.00
2019-04-30T06:15:32.744Z,29664.00
2019-04-30T06:16:32.783Z,28576.00
2019-04-30T06:17:32.827Z,27200.00
2019-04-30T06:18:32.869Z,26432.00
2019-04-30T06:19:32.914Z,27200.00
2019-04-30T06:20:32.954Z,28768.00
2019-04-30T06:21:32.994Z,28928.00
2019-04-30T06:22:33.038Z,27744.00
2019-04-30T06:23:33.081Z,25920.00
2019-04-30T06:24:33.123Z,26400.00
2019-04-30T06:25:45.738Z,26848.00
2019-04-30T06:26:33.207Z,28416.00
2019-04-30T06:27:33.248Z,28480.00
2019-04-30T06:28:33.289Z,31552.00
2019-04-30T06:29:33.334Z,32512.00
2019-04-30T06:30:33.375Z,32288.00
2019-04-30T06:31:37.397Z,32384.00
2019-04-30T06:32:33.458Z,34880.00
2019-04-30T06:33:33.499Z,36160.00
2019-04-30T06:34:33.543Z,36288.00
2019-04-30T06:35:33.582Z,35712.00
2019-04-30T06:36:33.624Z,35936.00
2019-04-30T06:37:33.666Z,37568.00
2019-04-30T06:38:33.711Z,38240.00
2019-04-30T06:39:33.751Z,36064.00
2019-04-30T06:40:33.790Z,36992.00
2019-04-30T06:41:33.833Z,34144.00
2019-04-30T06:42:33.875Z,32096.00
2019-04-30T06:43:33.919Z,31552.00
2019-04-30T06:44:38.279Z,31712.00
2019-04-30T06:45:34.003Z,33024.00
2019-04-30T06:46:34.046Z,34976.00
2019-04-30T06:47:34.087Z,36320.00
2019-04-30T06:48:34.171Z,37536.00
2019-04-30T06:49:34.172Z,40864.00
2019-04-30T06:50:34.216Z,34912.00
2019-04-30T06:51:34.268Z,27136.00
2019-04-30T06:52:34.300Z,28832.00
2019-04-30T06:53:34.342Z,26880.00
2019-04-30T06:54:34.385Z,28416.00
2019-04-30T06:55:34.430Z,32544.00
2019-04-30T06:56:34.469Z,40160.00
2019-04-30T06:57:34.511Z,38496.00
2019-04-30T06:58:34.555Z,30592.00
2019-04-30T06:59:34.596Z,29728.00
2019-04-30T07:00:35.577Z,33856.00
2019-04-30T07:01:34.680Z,31648.00
2019-04-30T07:02:34.724Z,36032.00
2019-04-30T07:03:34.762Z,38048.00
2019-04-30T07:04:34.805Z,40064.00
2019-04-30T07:05:34.849Z,44608.00
2019-04-30T07:06:37.100Z,45824.00
2019-04-30T07:07:39.007Z,46048.00
2019-04-30T07:08:39.651Z,47840.00
2019-04-30T07:09:49.545Z,50240.00
2019-04-30T07:10:35.061Z,51968.00
2019-04-30T07:11:35.098Z,53376.00
2019-04-30T07:12:35.140Z,55168.00
2019-04-30T07:13:35.182Z,53792.00
2019-04-30T07:14:35.225Z,50976.00
2019-04-30T07:15:35.268Z,47840.00
2019-04-30T07:16:35.314Z,43264.00
2019-04-30T07:17:35.354Z,41824.00
2019-04-30T07:18:35.459Z,41600.00
2019-04-30T07:19:51.088Z,43328.00
2019-04-30T07:20:35.486Z,35904.00
2019-04-30T07:21:36.416Z,37920.00
2019-04-30T07:22:41.061Z,38560.00
2019-04-30T07:23:35.621Z,39232.00
2019-04-30T07:24:35.661Z,39520.00
2019-04-30T07:25:35.706Z,38464.00
2019-04-30T07:26:35.750Z,39424.00
2019-04-30T07:27:35.791Z,45056.00
2019-04-30T07:28:44.628Z,42528.00
2019-04-30T07:29:35.875Z,40800.00
2019-04-30T07:30:35.980Z,40448.00
2019-04-30T07:31:35.963Z,41632.00
2019-04-30T07:32:36.005Z,41920.00
2019-04-30T07:33:36.050Z,44128.00
2019-04-30T07:34:37.157Z,45728.00
2019-04-30T07:35:36.138Z,42944.00
2019-04-30T07:37:36.226Z,38752.00
2019-04-30T07:38:45.670Z,41696.00
2019-04-30T07:39:36.309Z,43424.00
2019-04-30T07:40:36.353Z,44064.00
2019-04-30T07:41:36.396Z,42784.00
2019-04-30T07:42:42.610Z,37856.00
2019-04-30T07:43:39.052Z,33568.00
2019-04-30T07:44:36.825Z,31648.00
2019-04-30T07:45:36.573Z,34016.00
2019-04-30T07:46:41.168Z,35072.00
2019-04-30T07:47:36.660Z,36064.00
2019-04-30T07:48:36.701Z,36704.00
2019-04-30T07:49:49.869Z,39072.00
2019-04-30T07:50:37.217Z,40320.00
2019-04-30T07:51:40.268Z,41824.00
2019-04-30T07:52:55.431Z,46784.00
2019-04-30T07:53:36.915Z,48896.00
2019-04-30T07:54:36.955Z,48576.00
2019-04-30T07:55:39.103Z,56096.00
2019-04-30T07:56:38.773Z,57472.00
2019-04-30T07:57:40.143Z,60032.00
2019-04-30T07:58:39.095Z,57152.00
2019-04-30T07:59:37.171Z,64032.00
2019-04-30T08:00:40.079Z,68928.00
2019-04-30T08:01:37.256Z,60512.00
2019-04-30T08:02:41.547Z,64992.00
2019-04-30T08:03:39.533Z,62880.00
2019-04-30T08:04:37.385Z,68448.00
2019-04-30T08:05:40.003Z,71008.00
2019-04-30T08:06:39.530Z,73856.00
2019-04-30T08:07:39.166Z,69568.00
2019-04-30T08:08:40.557Z,62944.00
2019-04-30T08:09:34.987Z,42208.00
2019-04-30T08:09:41.880Z,53504.00
2019-04-30T08:10:39.384Z,61632.00
2019-04-30T08:11:41.872Z,68032.00
2019-04-30T08:12:41.886Z,64704.00
2019-04-30T08:13:40.515Z,57696.00
2019-04-30T08:14:39.092Z,48448.00
2019-04-30T08:15:37.878Z,44160.00
2019-04-30T08:16:38.629Z,42144.00
2019-04-30T08:17:38.914Z,40192.00
2019-04-30T08:18:39.224Z,39136.00
2019-04-30T08:19:38.490Z,41408.00
2019-04-30T08:20:39.284Z,38112.00
2019-04-30T08:21:38.771Z,38848.00
2019-04-30T08:22:40.862Z,46208.00
2019-04-30T08:23:39.718Z,51232.00
2019-04-30T08:24:39.122Z,43136.00
2019-04-30T08:25:39.098Z,42912.00
2019-04-30T08:26:39.778Z,46368.00
2019-04-30T08:27:39.300Z,45696.00
2019-04-30T08:28:38.774Z,55488.00
2019-04-30T08:29:39.515Z,58976.00
2019-04-30T08:30:39.183Z,60608.00
2019-04-30T08:31:40.626Z,64000.00
2019-04-30T08:32:38.741Z,64064.00
2019-04-30T08:33:40.225Z,63040.00
2019-04-30T08:34:39.344Z,64192.00
2019-04-30T08:35:39.755Z,65760.00
2019-04-30T08:36:38.804Z,63104.00
2019-04-30T08:37:38.849Z,59904.00
2019-04-30T08:38:39.484Z,59040.00
2019-04-30T08:39:39.723Z,65760.00
2019-04-30T08:40:47.226Z,68480.00
2019-04-30T08:41:39.297Z,61984.00
2019-04-30T08:42:40.408Z,48544.00
2019-04-30T08:43:39.491Z,54368.00
2019-04-30T08:44:39.680Z,53856.00
2019-04-30T08:45:39.212Z,52160.00
2019-04-30T08:46:39.262Z,52704.00
2019-04-30T08:47:39.411Z,51520.00
2019-04-30T08:48:47.826Z,51072.00
2019-04-30T08:49:40.511Z,53440.00
2019-04-30T08:50:40.016Z,52032.00
2019-04-30T08:51:40.053Z,58112.00
2019-04-30T08:52:39.599Z,59616.00
2019-04-30T08:53:41.071Z,66880.00
2019-04-30T08:54:39.631Z,65920.00
2019-04-30T08:55:39.677Z,65024.00
2019-04-30T08:56:39.733Z,65152.00
2019-04-30T08:57:39.771Z,65440.00
2019-04-30T08:58:39.818Z,64128.00
2019-04-30T08:59:39.865Z,51648.00
2019-04-30T09:00:39.917Z,59008.00
2019-04-30T09:01:39.962Z,61440.00
2019-04-30T09:02:40.008Z,66144.00
2019-04-30T09:03:40.055Z,54912.00
2019-04-30T09:04:40.105Z,53216.00
2019-04-30T09:05:40.155Z,50304.00
2019-04-30T09:06:40.338Z,47008.00
2019-04-30T09:07:40.241Z,46624.00
2019-04-30T09:08:40.360Z,40992.00
2019-04-30T09:09:40.335Z,41216.00
2019-04-30T09:10:40.384Z,43584.00
2019-04-30T09:11:51.719Z,46016.00
2019-04-30T09:12:40.476Z,54496.00
2019-04-30T09:13:40.522Z,56864.00
2019-04-30T09:14:40.747Z,56128.00
2019-04-30T09:15:40.615Z,66944.00
2019-04-30T09:16:40.689Z,69024.00
2019-04-30T09:17:40.711Z,69984.00
2019-04-30T09:18:40.754Z,67744.00
2019-04-30T09:19:40.801Z,73408.00
2019-04-30T09:20:41.035Z,67648.00
2019-04-30T09:21:40.897Z,64640.00
2019-04-30T09:22:40.945Z,65152.00
2019-04-30T09:23:47.979Z,69088.00
2019-04-30T09:24:41.037Z,67616.00
2019-04-30T09:25:41.084Z,65984.00
2019-04-30T09:26:41.136Z,61408.00
2019-04-30T09:27:41.184Z,52768.00
2019-04-30T09:28:41.232Z,56736.00
2019-04-30T09:29:41.275Z,55040.00
2019-04-30T09:30:41.324Z,53216.00
2019-04-30T09:31:41.374Z,48128.00
2019-04-30T09:32:41.421Z,56384.00
2019-04-30T09:33:41.467Z,59936.00
2019-04-30T09:34:41.515Z,58624.00
2019-04-30T09:35:41.565Z,59328.00
2019-04-30T09:36:41.606Z,50464.00
2019-04-30T09:37:41.864Z,47520.00
2019-04-30T09:38:41.706Z,52064.00
2019-04-30T09:39:41.752Z,55840.00
2019-04-30T09:40:41.883Z,60000.00
2019-04-30T09:41:41.849Z,63520.00
2019-04-30T09:42:41.894Z,61952.00
2019-04-30T09:43:41.943Z,64480.00
2019-04-30T09:44:41.990Z,58656.00
2019-04-30T09:45:42.044Z,66304.00
2019-04-30T09:46:42.088Z,65376.00
2019-04-30T09:47:42.195Z,53536.00
2019-04-30T09:48:42.185Z,55712.00
2019-04-30T09:49:42.227Z,52000.00
2019-04-30T09:50:42.344Z,53024.00
2019-04-30T09:51:42.527Z,46016.00
2019-04-30T09:52:42.820Z,48800.00
2019-04-30T09:53:42.418Z,36768.00
2019-04-30T09:54:42.554Z,60384.00
2019-04-30T09:55:42.513Z,66848.00
2019-04-30T09:56:42.556Z,61536.00
2019-04-30T09:57:42.606Z,68128.00
2019-04-30T09:58:42.650Z,74464.00
2019-04-30T09:59:42.703Z,72512.00
2019-04-30T10:00:42.745Z,70240.00
2019-04-30T10:01:42.788Z,67424.00
2019-04-30T10:02:42.836Z,64896.00
2019-04-30T10:03:43.306Z,64992.00
2019-04-30T10:04:43.451Z,63296.00
2019-04-30T10:05:42.977Z,59360.00
2019-04-30T10:06:43.024Z,52384.00
2019-04-30T10:07:43.069Z,54592.00
2019-04-30T10:08:48.433Z,52800.00
2019-04-30T10:09:43.161Z,49824.00
2019-04-30T10:10:43.207Z,55008.00
2019-04-30T10:11:43.252Z,56192.00
2019-04-30T10:12:43.307Z,63104.00
2019-04-30T10:13:43.346Z,63552.00
2019-04-30T10:14:43.394Z,64096.00
2019-04-30T10:15:43.436Z,67872.00
2019-04-30T10:16:43.482Z,70752.00
2019-04-30T10:17:43.534Z,74144.00
2019-04-30T10:18:43.576Z,78080.00
2019-04-30T10:19:43.623Z,80160.00
2019-04-30T10:20:43.671Z,79072.00
2019-04-30T10:21:43.731Z,78720.00
2019-04-30T10:22:43.764Z,75968.00
2019-04-30T10:23:43.806Z,76704.00
2019-04-30T10:24:43.853Z,76960.00
2019-04-30T10:25:43.903Z,78656.00
2019-04-30T10:26:43.945Z,78752.00
2019-04-30T10:27:43.995Z,77888.00
2019-04-30T10:28:44.072Z,77536.00
2019-04-30T10:29:44.092Z,74976.00
2019-04-30T10:30:44.135Z,74016.00
2019-04-30T10:31:44.186Z,75296.00
2019-04-30T10:32:44.229Z,77440.00
2019-04-30T10:33:44.280Z,79424.00
2019-04-30T10:34:44.323Z,79040.00
2019-04-30T10:35:44.377Z,79104.00
2019-04-30T10:36:44.440Z,81024.00
2019-04-30T10:37:44.467Z,77312.00
2019-04-30T10:38:44.519Z,75776.00
2019-04-30T10:39:44.599Z,75744.00
2019-04-30T10:40:44.623Z,76192.00
2019-04-30T10:41:44.660Z,74688.00
2019-04-30T10:42:44.709Z,82240.00
2019-04-30T10:43:44.757Z,79040.00
2019-04-30T10:44:44.803Z,75008.00
2019-04-30T10:45:44.852Z,72736.00
2019-04-30T10:46:44.903Z,71296.00
2019-04-30T10:47:44.948Z,68608.00
2019-04-30T10:48:44.997Z,69024.00
2019-04-30T10:49:45.044Z,48480.00
2019-04-30T10:50:45.094Z,55328.00
2019-04-30T10:51:45.141Z,45984.00
2019-04-30T10:52:45.190Z,54496.00
2019-04-30T10:53:45.238Z,63040.00
2019-04-30T10:54:45.286Z,74400.00
2019-04-30T10:55:45.333Z,74592.00
2019-04-30T10:56:45.382Z,47424.00
2019-04-30T10:57:45.427Z,60768.00
2019-04-30T10:58:45.483Z,46752.00
2019-04-30T10:59:45.519Z,35040.00
2019-04-30T11:00:45.575Z,32448.00
2019-04-30T11:01:45.616Z,49120.00
2019-04-30T11:02:45.659Z,61216.00
2019-04-30T11:03:45.709Z,62944.00
2019-04-30T11:04:45.755Z,60032.00
2019-04-30T11:05:45.798Z,50112.00
2019-04-30T11:06:45.850Z,45440.00
2019-04-30T11:07:45.889Z,58240.00
2019-04-30T11:08:45.935Z,52384.00
2019-04-30T11:09:45.980Z,42752.00
2019-04-30T11:10:46.024Z,43936.00
2019-04-30T11:11:46.072Z,42688.00
2019-04-30T11:12:46.114Z,41888.00
2019-04-30T11:13:46.160Z,41920.00
2019-04-30T11:14:46.204Z,53152.00
2019-04-30T11:15:46.248Z,52256.00
2019-04-30T11:16:46.559Z,57376.00
2019-04-30T11:17:46.554Z,50784.00
2019-04-30T11:18:46.658Z,47968.00
2019-04-30T11:19:46.643Z,47552.00
2019-04-30T11:20:46.686Z,53280.00
2019-04-30T11:21:46.665Z,51936.00
2019-04-30T11:22:46.663Z,43456.00
2019-04-30T11:23:46.796Z,35200.00
2019-04-30T11:24:56.588Z,31552.00
2019-04-30T11:25:47.491Z,33824.00
2019-04-30T11:26:49.544Z,29792.00
2019-04-30T11:27:47.325Z,32160.00
2019-04-30T11:28:47.056Z,35744.00
2019-04-30T11:29:48.898Z,40704.00
2019-04-30T11:30:47.181Z,43648.00
2019-04-30T11:31:47.225Z,43488.00
2019-04-30T11:32:47.254Z,43360.00
2019-04-30T11:33:47.351Z,43552.00
2019-04-30T11:34:47.100Z,44000.00
2019-04-30T11:35:47.149Z,46048.00
2019-04-30T11:36:47.190Z,44992.00
2019-04-30T11:37:47.234Z,41632.00
2019-04-30T11:38:48.776Z,41344.00
2019-04-30T11:39:47.329Z,41472.00
2019-04-30T11:40:48.594Z,40384.00
2019-04-30T11:41:47.418Z,39424.00
2019-04-30T11:42:47.465Z,40224.00
2019-04-30T11:43:49.518Z,40992.00
2019-04-30T11:44:48.793Z,41344.00
2019-04-30T11:45:47.609Z,39840.00
2019-04-30T11:46:49.461Z,38272.00
2019-04-30T11:47:53.361Z,38208.00
2019-04-30T11:48:48.975Z,38080.00
2019-04-30T11:49:47.792Z,37376.00
2019-04-30T11:50:49.706Z,36992.00
2019-04-30T11:51:47.885Z,38624.00
2019-04-30T11:52:47.931Z,40000.00
2019-04-30T11:53:48.976Z,38368.00
2019-04-30T11:54:51.425Z,35936.00
2019-04-30T11:55:49.184Z,36480.00
2019-04-30T11:56:50.317Z,37472.00
2019-04-30T11:57:49.514Z,37184.00
2019-04-30T11:58:48.905Z,36032.00
2019-04-30T11:59:48.263Z,37024.00
2019-04-30T12:00:49.453Z,38816.00
2019-04-30T12:01:48.359Z,38624.00
2019-04-30T12:02:52.639Z,40832.00
2019-04-30T12:03:49.695Z,44416.00
2019-04-30T12:04:49.438Z,45664.00
2019-04-30T12:05:49.215Z,47200.00
2019-04-30T12:06:48.598Z,48448.00